Flight Track Log - Related Links

Times and Time Zones

All times are in EDT time to prevent confusion due to time zone crossing. See the RPA3392 flight status page for this flight to view local times or setup timezone preferences in your user account.

Time Position Orientation Groundspeed Altitude Reporting Facility
EDT Latitude Longitude Course Direction KTS MPH feet Rate Location/Type
Thu 10:44:38 PM 38.8000 -77.0333 43° Northeast 188 216 2,000  Level Potomac TRACON
Thu 10:45:38 PM 38.7500 -76.9833 142° Southeast 271 312 4,500 2,700 Climbing Potomac TRACON
Thu 10:46:38 PM 38.7833 -76.9333 49° Northeast 252 290 7,400 1,740 Climbing Potomac TRACON
Thu 10:47:00 PM 39.1819 -75.9114 81° East  Level FlightAware Approximate
Thu 10:48:00 PM 39.2933 -75.7234 38° Northeast  Level FlightAware Approximate
Thu 10:48:58 PM 38.9114 -76.8028 38° Northeast 274 315 10,300  Level Washington Center
Thu 10:49:00 PM 39.4291 -75.5514 43° Northeast  Level FlightAware Approximate
Thu 10:49:59 PM 38.9519 -76.7072 61° Northeast 278 320 12,300  Level Washington Center
Thu 10:50:59 PM 38.9944 -76.6039 62° Northeast 300 345 14,700 2,370 Climbing Washington Center
Thu 10:51:58 PM 39.0350 -76.5028 63° Northeast 313 360 17,000 1,160 Climbing Washington Center
Thu 10:52:58 PM 39.0775 -76.4044 61° Northeast 313 360 17,000 403 Level Washington Center
Thu 10:53:57 PM 39.1197 -76.3033 62° Northeast 313 360 17,800 1,488 Climbing Washington Center
Thu 10:54:59 PM 39.1517 -76.1911 70° East 318 366 20,000 1,934 Climbing Washington Center
Thu 10:55:58 PM 39.1708 -76.0681 79° East 325 374 21,700 1,462 Climbing Washington Center
Thu 10:56:58 PM 39.1858 -75.9425 81° East 346 398 22,900 645 Climbing Washington Center
Thu 10:57:59 PM 39.2258 -75.8353 64° Northeast 344 396 23,000 397 Climbing Washington Center
Thu 10:58:59 PM 39.2947 -75.7472 45° Northeast 331 381 23,700 1,140 Climbing Washington Center
Thu 11:00:00 PM 39.3656 -75.6614 43° Northeast 336 387 25,300 1,576 Climbing Washington Center
Thu 11:00:57 PM 39.4344 -75.5700 46° Northeast 341 392 26,800 1,373 Climbing Washington Center
Thu 11:01:58 PM 39.5072 -75.4733 46° Northeast 359 413 28,000 900 Climbing Washington Center
Thu 11:02:57 PM 39.5842 -75.3733 45° Northeast 367 422 28,600 504 Climbing Washington Center
Thu 11:03:57 PM 39.6631 -75.2681 46° Northeast 388 447 29,000 198 Climbing Washington Center
Thu 11:04:58 PM 39.7461 -75.1517 47° Northeast 408 470 29,000  Level Washington Center
Thu 11:05:59 PM 39.8372 -75.0214 48° Northeast 435 501 29,000  Level Washington Center
Thu 11:07:00 PM 39.9158 -74.9097 47° Northeast 429 494 29,000  Level Washington Center
Thu 11:08:08 PM 40.0056 -74.7842 47° Northeast 436 502 29,000  Level New York Center
Thu 11:09:08 PM 40.0881 -74.6886 42° Northeast 411 473 29,000  Level New York Center
Thu 11:10:08 PM 40.1664 -74.5925 43° Northeast 389 448 29,000  Level New York Center
Thu 11:11:08 PM 40.2642 -74.5328 25° Northeast 378 435 29,000  Level New York Center
Thu 11:12:08 PM 40.3756 -74.5006 12° North 384 442 29,000  Level New York Center
Thu 11:13:08 PM 40.4869 -74.4686 12° North 395 455 29,000  Level New York Center
Thu 11:14:08 PM 40.6006 -74.4364 12° North 407 468 29,000  Level New York Center
Thu 11:15:08 PM 40.7142 -74.4042 12° North 414 476 29,000  Level New York Center
Thu 11:17:30 PM 40.9694 -74.3369 11° North 403 464 29,000 -299 Level Boston Center
Thu 11:18:29 PM 41.0844 -74.3017 13° North 413 475 28,000 -1,322 Descending Boston Center
Thu 11:19:28 PM 41.1933 -74.2717 12° North 413 475 26,400 -1,000 Descending Boston Center
Thu 11:20:29 PM 41.3108 -74.2308 15° North 400 460 26,000 -202 Descending Boston Center
Thu 11:21:27 PM 41.4175 -74.1978 13° North 394 453 26,000  Level Boston Center
Thu 11:22:28 PM 41.5056 -74.1753 11° North 394 453 26,000 -836 Level Boston Center
Thu 11:23:29 PM 41.6247 -74.1425 12° North 394 453 24,300 -1,884 Descending Boston Center
Thu 11:24:29 PM 41.7294 -74.1119 12° North 394 453 22,200 -2,118 Descending Boston Center
Thu 11:25:28 PM 41.8278 -74.0839 12° North 381 438 20,100 -2,265 Descending Boston Center
Thu 11:26:07 PM 41.9011 -74.0606 13° North 365 420 18,500 -2,139 Descending Boston Center
Thu 11:27:09 PM 41.9975 -74.0294 13° North 353 406 16,500 -2,031 Descending Boston Center
Thu 11:28:14 PM 42.1061 -74.0017 11° North 343 395 14,200 -2,048 Descending Boston Center
Thu 11:29:15 PM 42.1942 -73.9758 12° North 334 384 12,200 -1,612 Descending Boston Center
Thu 11:30:28 PM 42.2967 -73.9417 14° North 320 368 10,600 -1,289 Descending Boston Center
Thu 11:31:16 PM 42.3572 -73.9264 11° North 276 318 9,600 -1,596 Descending Boston Center
Thu 11:32:17 PM 42.4300 -73.9478 348° North 265 305 7,700 -1,770 Descending Boston Center
Thu 11:33:18 PM 42.5028 -73.9581 354° North 266 306 6,000 -1,339 Descending Boston Center
Thu 11:34:18 PM 42.5778 -73.9683 354° North 262 302 5,000 -1,087 Descending Boston Center
Thu 11:35:25 PM 42.6611 -73.9731 358° North 260 299 3,700 -692 Descending Boston Center
Thu 11:36:28 PM 42.7339 -73.9778 357° North 265 305 3,500 -341 Descending Boston Center
Thu 11:37:28 PM 42.8111 -73.9769 360° North 255 293 3,000 -800 Descending Boston Center
Thu 11:38:28 PM 42.8436 -73.8700 67° East 230 265 1,900 -706 Descending Boston Center
Thu 11:39:27 PM 42.8278 -73.8103 110° East 158 182 1,600 -500 Descending Boston Center
Thu 11:40:28 PM 42.7861 -73.8094 179° South 125 144 900 -689 Descending Boston Center

Login

Don't have an account? Register now (free) for customized features, flight alerts, and more!